sensor_id;sensor_type;location;lat;lon;timestamp;P1;durP1;ratioP1;P2;durP2;ratioP2
22764;SDS011;11549;50.852;3.816;2024-03-07T00:00:11;46.63;;;27.63;;
22764;SDS011;11549;50.852;3.816;2024-03-07T00:02:44;39.67;;;27.08;;
22764;SDS011;11549;50.852;3.816;2024-03-07T00:05:15;38.28;;;24.92;;
22764;SDS011;11549;50.852;3.816;2024-03-07T00:07:44;33.88;;;22.63;;
22764;SDS011;11549;50.852;3.816;2024-03-07T00:10:13;31.92;;;22.65;;
22764;SDS011;11549;50.852;3.816;2024-03-07T00:12:43;33.65;;;22.88;;
22764;SDS011;11549;50.852;3.816;2024-03-07T00:15:13;34.80;;;22.55;;
22764;SDS011;11549;50.852;3.816;2024-03-07T00:17:42;33.75;;;23.10;;
22764;SDS011;11549;50.852;3.816;2024-03-07T00:20:11;34.67;;;22.35;;
22764;SDS011;11549;50.852;3.816;2024-03-07T00:22:42;30.50;;;21.17;;
22764;SDS011;11549;50.852;3.816;2024-03-07T00:25:11;28.85;;;20.98;;
22764;SDS011;11549;50.852;3.816;2024-03-07T00:27:41;31.90;;;20.85;;
22764;SDS011;11549;50.852;3.816;2024-03-07T00:30:14;34.03;;;22.13;;
22764;SDS011;11549;50.852;3.816;2024-03-07T00:32:45;30.83;;;22.07;;
22764;SDS011;11549;50.852;3.816;2024-03-07T00:35:15;27.80;;;20.67;;
22764;SDS011;11549;50.852;3.816;2024-03-07T00:37:45;29.15;;;21.05;;
22764;SDS011;11549;50.852;3.816;2024-03-07T00:40:14;31.85;;;20.63;;
22764;SDS011;11549;50.852;3.816;2024-03-07T00:42:42;28.38;;;19.88;;
22764;SDS011;11549;50.852;3.816;2024-03-07T00:45:10;31.30;;;20.50;;
22764;SDS011;11549;50.852;3.816;2024-03-07T00:47:40;28.23;;;20.02;;
22764;SDS011;11549;50.852;3.816;2024-03-07T00:50:10;28.92;;;20.70;;
22764;SDS011;11549;50.852;3.816;2024-03-07T00:52:38;32.63;;;21.55;;
22764;SDS011;11549;50.852;3.816;2024-03-07T00:55:08;30.30;;;21.17;;
22764;SDS011;11549;50.852;3.816;2024-03-07T00:57:36;29.75;;;21.52;;
22764;SDS011;11549;50.852;3.816;2024-03-07T01:00:06;30.80;;;21.30;;
22764;SDS011;11549;50.852;3.816;2024-03-07T01:02:42;29.17;;;21.20;;
22764;SDS011;11549;50.852;3.816;2024-03-07T01:05:12;31.70;;;22.10;;
22764;SDS011;11549;50.852;3.816;2024-03-07T01:07:41;27.50;;;20.77;;
22764;SDS011;11549;50.852;3.816;2024-03-07T01:10:12;28.65;;;21.08;;
22764;SDS011;11549;50.852;3.816;2024-03-07T01:12:41;31.92;;;22.25;;
22764;SDS011;11549;50.852;3.816;2024-03-07T01:15:10;31.90;;;23.10;;
22764;SDS011;11549;50.852;3.816;2024-03-07T01:17:39;33.80;;;22.42;;
22764;SDS011;11549;50.852;3.816;2024-03-07T01:20:09;30.98;;;21.50;;
22764;SDS011;11549;50.852;3.816;2024-03-07T01:22:38;34.10;;;22.83;;
22764;SDS011;11549;50.852;3.816;2024-03-07T01:25:07;33.03;;;22.90;;
22764;SDS011;11549;50.852;3.816;2024-03-07T01:27:36;35.75;;;23.92;;
22764;SDS011;11549;50.852;3.816;2024-03-07T01:30:05;36.60;;;24.77;;
22764;SDS011;11549;50.852;3.816;2024-03-07T01:32:35;40.15;;;25.98;;
22764;SDS011;11549;50.852;3.816;2024-03-07T01:35:04;38.13;;;25.67;;
22764;SDS011;11549;50.852;3.816;2024-03-07T01:37:36;38.92;;;25.30;;
22764;SDS011;11549;50.852;3.816;2024-03-07T01:40:05;40.28;;;25.58;;
22764;SDS011;11549;50.852;3.816;2024-03-07T01:42:35;38.63;;;24.88;;
22764;SDS011;11549;50.852;3.816;2024-03-07T01:45:03;38.10;;;25.27;;
22764;SDS011;11549;50.852;3.816;2024-03-07T01:47:35;40.53;;;26.45;;
22764;SDS011;11549;50.852;3.816;2024-03-07T01:50:04;44.33;;;27.65;;
22764;SDS011;11549;50.852;3.816;2024-03-07T01:52:35;44.10;;;28.02;;
22764;SDS011;11549;50.852;3.816;2024-03-07T01:55:08;48.03;;;28.17;;
22764;SDS011;11549;50.852;3.816;2024-03-07T01:57:37;49.20;;;28.50;;
22764;SDS011;11549;50.852;3.816;2024-03-07T02:00:06;45.33;;;28.75;;
22764;SDS011;11549;50.852;3.816;2024-03-07T02:02:36;52.53;;;30.88;;
22764;SDS011;11549;50.852;3.816;2024-03-07T02:05:05;48.10;;;29.77;;
22764;SDS011;11549;50.852;3.816;2024-03-07T02:07:35;56.53;;;34.08;;
22764;SDS011;11549;50.852;3.816;2024-03-07T02:10:06;56.97;;;33.47;;
22764;SDS011;11549;50.852;3.816;2024-03-07T02:12:35;52.78;;;32.47;;
22764;SDS011;11549;50.852;3.816;2024-03-07T02:15:04;57.80;;;32.75;;
22764;SDS011;11549;50.852;3.816;2024-03-07T02:17:34;53.75;;;32.38;;
22764;SDS011;11549;50.852;3.816;2024-03-07T02:20:05;60.03;;;35.55;;
22764;SDS011;11549;50.852;3.816;2024-03-07T02:22:36;58.42;;;34.10;;
22764;SDS011;11549;50.852;3.816;2024-03-07T02:25:05;66.05;;;38.03;;
22764;SDS011;11549;50.852;3.816;2024-03-07T02:27:36;63.67;;;37.15;;
22764;SDS011;11549;50.852;3.816;2024-03-07T02:30:05;64.72;;;37.67;;
22764;SDS011;11549;50.852;3.816;2024-03-07T02:32:35;68.25;;;38.08;;
22764;SDS011;11549;50.852;3.816;2024-03-07T02:35:04;68.03;;;37.85;;
22764;SDS011;11549;50.852;3.816;2024-03-07T02:37:36;67.00;;;38.65;;
22764;SDS011;11549;50.852;3.816;2024-03-07T02:40:05;74.07;;;40.83;;
22764;SDS011;11549;50.852;3.816;2024-03-07T02:42:35;70.18;;;40.63;;
22764;SDS011;11549;50.852;3.816;2024-03-07T02:45:04;70.20;;;39.45;;
22764;SDS011;11549;50.852;3.816;2024-03-07T02:47:33;80.30;;;41.97;;
22764;SDS011;11549;50.852;3.816;2024-03-07T02:50:03;79.75;;;43.90;;
22764;SDS011;11549;50.852;3.816;2024-03-07T02:52:33;83.25;;;44.90;;
22764;SDS011;11549;50.852;3.816;2024-03-07T02:55:03;77.07;;;43.92;;
22764;SDS011;11549;50.852;3.816;2024-03-07T02:57:32;86.10;;;47.05;;
22764;SDS011;11549;50.852;3.816;2024-03-07T03:00:01;89.38;;;47.63;;
22764;SDS011;11549;50.852;3.816;2024-03-07T03:02:40;86.70;;;45.83;;
22764;SDS011;11549;50.852;3.816;2024-03-07T03:05:09;86.75;;;46.53;;
22764;SDS011;11549;50.852;3.816;2024-03-07T03:07:37;90.28;;;50.00;;
22764;SDS011;11549;50.852;3.816;2024-03-07T03:10:08;87.53;;;45.88;;
22764;SDS011;11549;50.852;3.816;2024-03-07T03:12:37;91.03;;;47.70;;
22764;SDS011;11549;50.852;3.816;2024-03-07T03:15:06;88.00;;;47.80;;
22764;SDS011;11549;50.852;3.816;2024-03-07T03:17:38;90.13;;;48.70;;
22764;SDS011;11549;50.852;3.816;2024-03-07T03:20:07;90.93;;;48.53;;
22764;SDS011;11549;50.852;3.816;2024-03-07T03:22:51;94.97;;;50.55;;
22764;SDS011;11549;50.852;3.816;2024-03-07T03:25:42;92.18;;;49.15;;
22764;SDS011;11549;50.852;3.816;2024-03-07T03:28:10;85.75;;;47.60;;
22764;SDS011;11549;50.852;3.816;2024-03-07T03:30:39;95.07;;;51.60;;
22764;SDS011;11549;50.852;3.816;2024-03-07T03:33:09;98.28;;;51.17;;
22764;SDS011;11549;50.852;3.816;2024-03-07T03:35:38;99.70;;;51.47;;
22764;SDS011;11549;50.852;3.816;2024-03-07T03:38:07;101.22;;;52.90;;
22764;SDS011;11549;50.852;3.816;2024-03-07T03:40:36;97.72;;;51.45;;
22764;SDS011;11549;50.852;3.816;2024-03-07T03:43:06;104.15;;;54.08;;
22764;SDS011;11549;50.852;3.816;2024-03-07T03:45:34;96.32;;;51.03;;
22764;SDS011;11549;50.852;3.816;2024-03-07T03:48:04;103.05;;;53.75;;
22764;SDS011;11549;50.852;3.816;2024-03-07T03:50:33;98.80;;;50.58;;
22764;SDS011;11549;50.852;3.816;2024-03-07T03:53:02;103.38;;;52.80;;
22764;SDS011;11549;50.852;3.816;2024-03-07T03:55:32;95.10;;;50.78;;
22764;SDS011;11549;50.852;3.816;2024-03-07T03:58:00;99.10;;;52.47;;
22764;SDS011;11549;50.852;3.816;2024-03-07T04:00:30;101.93;;;52.28;;
22764;SDS011;11549;50.852;3.816;2024-03-07T04:02:59;100.70;;;53.75;;
22764;SDS011;11549;50.852;3.816;2024-03-07T04:05:28;111.78;;;55.90;;
22764;SDS011;11549;50.852;3.816;2024-03-07T04:07:56;104.43;;;53.70;;
22764;SDS011;11549;50.852;3.816;2024-03-07T04:10:25;107.22;;;54.85;;
22764;SDS011;11549;50.852;3.816;2024-03-07T04:12:53;106.03;;;54.30;;
22764;SDS011;11549;50.852;3.816;2024-03-07T04:15:22;112.05;;;57.53;;
22764;SDS011;11549;50.852;3.816;2024-03-07T04:17:54;114.85;;;57.45;;
22764;SDS011;11549;50.852;3.816;2024-03-07T04:20:23;110.65;;;56.08;;
22764;SDS011;11549;50.852;3.816;2024-03-07T04:22:52;119.93;;;57.83;;
22764;SDS011;11549;50.852;3.816;2024-03-07T04:25:22;116.25;;;56.67;;
22764;SDS011;11549;50.852;3.816;2024-03-07T04:27:51;117.43;;;57.03;;
22764;SDS011;11549;50.852;3.816;2024-03-07T04:30:20;123.13;;;60.63;;
22764;SDS011;11549;50.852;3.816;2024-03-07T04:32:48;117.57;;;59.05;;
22764;SDS011;11549;50.852;3.816;2024-03-07T04:35:20;119.40;;;58.65;;
22764;SDS011;11549;50.852;3.816;2024-03-07T04:37:48;119.20;;;58.33;;
22764;SDS011;11549;50.852;3.816;2024-03-07T04:40:19;113.53;;;56.80;;
22764;SDS011;11549;50.852;3.816;2024-03-07T04:42:48;113.18;;;56.45;;
22764;SDS011;11549;50.852;3.816;2024-03-07T04:45:17;122.65;;;57.90;;
22764;SDS011;11549;50.852;3.816;2024-03-07T04:47:47;121.25;;;59.47;;
22764;SDS011;11549;50.852;3.816;2024-03-07T04:50:17;117.20;;;59.55;;
22764;SDS011;11549;50.852;3.816;2024-03-07T04:52:47;122.90;;;58.83;;
22764;SDS011;11549;50.852;3.816;2024-03-07T04:55:16;122.05;;;58.67;;
22764;SDS011;11549;50.852;3.816;2024-03-07T04:57:45;130.15;;;61.95;;
22764;SDS011;11549;50.852;3.816;2024-03-07T05:00:14;130.57;;;61.50;;
22764;SDS011;11549;50.852;3.816;2024-03-07T05:02:47;127.70;;;60.45;;
22764;SDS011;11549;50.852;3.816;2024-03-07T05:05:18;129.48;;;61.13;;
22764;SDS011;11549;50.852;3.816;2024-03-07T05:07:51;135.50;;;62.17;;
22764;SDS011;11549;50.852;3.816;2024-03-07T05:10:20;130.15;;;62.83;;
22764;SDS011;11549;50.852;3.816;2024-03-07T05:12:48;134.35;;;63.03;;
22764;SDS011;11549;50.852;3.816;2024-03-07T05:15:17;132.30;;;62.85;;
22764;SDS011;11549;50.852;3.816;2024-03-07T05:17:46;142.77;;;64.60;;
22764;SDS011;11549;50.852;3.816;2024-03-07T05:20:15;138.52;;;64.47;;
22764;SDS011;11549;50.852;3.816;2024-03-07T05:22:43;140.00;;;64.05;;
22764;SDS011;11549;50.852;3.816;2024-03-07T05:25:19;137.48;;;62.95;;
22764;SDS011;11549;50.852;3.816;2024-03-07T05:27:48;134.30;;;62.30;;
22764;SDS011;11549;50.852;3.816;2024-03-07T05:30:18;141.02;;;64.72;;
22764;SDS011;11549;50.852;3.816;2024-03-07T05:32:48;146.10;;;65.45;;
22764;SDS011;11549;50.852;3.816;2024-03-07T05:35:17;142.82;;;65.70;;
22764;SDS011;11549;50.852;3.816;2024-03-07T05:37:48;143.90;;;65.03;;
22764;SDS011;11549;50.852;3.816;2024-03-07T05:40:19;146.15;;;64.45;;
22764;SDS011;11549;50.852;3.816;2024-03-07T05:42:48;142.35;;;65.00;;
22764;SDS011;11549;50.852;3.816;2024-03-07T05:45:17;148.93;;;66.85;;
22764;SDS011;11549;50.852;3.816;2024-03-07T05:47:46;154.63;;;66.88;;
22764;SDS011;11549;50.852;3.816;2024-03-07T05:50:16;153.93;;;66.75;;
22764;SDS011;11549;50.852;3.816;2024-03-07T05:52:45;146.35;;;65.63;;
22764;SDS011;11549;50.852;3.816;2024-03-07T05:55:15;155.82;;;69.13;;
22764;SDS011;11549;50.852;3.816;2024-03-07T05:57:47;157.13;;;66.38;;
22764;SDS011;11549;50.852;3.816;2024-03-07T06:00:16;159.13;;;67.43;;
22764;SDS011;11549;50.852;3.816;2024-03-07T06:02:54;157.32;;;66.57;;
22764;SDS011;11549;50.852;3.816;2024-03-07T06:05:23;154.50;;;66.25;;
22764;SDS011;11549;50.852;3.816;2024-03-07T06:07:53;157.63;;;67.70;;
22764;SDS011;11549;50.852;3.816;2024-03-07T06:10:23;159.93;;;68.07;;
22764;SDS011;11549;50.852;3.816;2024-03-07T06:12:53;155.07;;;68.97;;
22764;SDS011;11549;50.852;3.816;2024-03-07T06:15:36;163.27;;;71.53;;
22764;SDS011;11549;50.852;3.816;2024-03-07T06:18:05;159.63;;;68.53;;
22764;SDS011;11549;50.852;3.816;2024-03-07T06:20:35;162.05;;;69.13;;
22764;SDS011;11549;50.852;3.816;2024-03-07T06:23:04;162.63;;;69.35;;
22764;SDS011;11549;50.852;3.816;2024-03-07T06:25:32;174.77;;;71.18;;
22764;SDS011;11549;50.852;3.816;2024-03-07T06:28:05;178.15;;;70.47;;
22764;SDS011;11549;50.852;3.816;2024-03-07T06:30:38;173.63;;;71.75;;
22764;SDS011;11549;50.852;3.816;2024-03-07T06:33:07;181.73;;;72.95;;
22764;SDS011;11549;50.852;3.816;2024-03-07T06:35:37;186.80;;;71.00;;
22764;SDS011;11549;50.852;3.816;2024-03-07T06:38:06;242.50;;;71.88;;
22764;SDS011;11549;50.852;3.816;2024-03-07T06:40:36;234.43;;;70.05;;
22764;SDS011;11549;50.852;3.816;2024-03-07T06:43:08;221.10;;;70.93;;
22764;SDS011;11549;50.852;3.816;2024-03-07T06:45:38;164.02;;;64.88;;
22764;SDS011;11549;50.852;3.816;2024-03-07T06:48:08;221.88;;;69.30;;
22764;SDS011;11549;50.852;3.816;2024-03-07T06:50:37;243.70;;;71.50;;
22764;SDS011;11549;50.852;3.816;2024-03-07T06:53:06;214.82;;;67.28;;
22764;SDS011;11549;50.852;3.816;2024-03-07T06:55:36;201.43;;;66.70;;
22764;SDS011;11549;50.852;3.816;2024-03-07T06:58:05;236.85;;;71.50;;
22764;SDS011;11549;50.852;3.816;2024-03-07T07:00:35;314.00;;;72.30;;
22764;SDS011;11549;50.852;3.816;2024-03-07T07:03:04;244.15;;;72.82;;
22764;SDS011;11549;50.852;3.816;2024-03-07T07:05:34;215.00;;;70.57;;
22764;SDS011;11549;50.852;3.816;2024-03-07T07:08:03;233.45;;;73.28;;
22764;SDS011;11549;50.852;3.816;2024-03-07T07:10:33;358.15;;;78.82;;
22764;SDS011;11549;50.852;3.816;2024-03-07T07:13:03;204.35;;;72.55;;
22764;SDS011;11549;50.852;3.816;2024-03-07T07:15:32;269.27;;;73.90;;
22764;SDS011;11549;50.852;3.816;2024-03-07T07:18:02;272.33;;;73.88;;
22764;SDS011;11549;50.852;3.816;2024-03-07T07:20:32;190.57;;;68.88;;
22764;SDS011;11549;50.852;3.816;2024-03-07T07:23:01;207.93;;;71.65;;
22764;SDS011;11549;50.852;3.816;2024-03-07T07:25:30;319.23;;;77.28;;
22764;SDS011;11549;50.852;3.816;2024-03-07T07:27:59;191.65;;;72.50;;
22764;SDS011;11549;50.852;3.816;2024-03-07T07:30:31;290.60;;;78.15;;
22764;SDS011;11549;50.852;3.816;2024-03-07T07:33:00;180.55;;;70.60;;
22764;SDS011;11549;50.852;3.816;2024-03-07T07:35:31;260.77;;;73.20;;
22764;SDS011;11549;50.852;3.816;2024-03-07T07:38:01;201.38;;;71.85;;
22764;SDS011;11549;50.852;3.816;2024-03-07T07:40:29;227.07;;;73.13;;
22764;SDS011;11549;50.852;3.816;2024-03-07T07:42:59;229.02;;;73.78;;
22764;SDS011;11549;50.852;3.816;2024-03-07T07:45:29;215.98;;;71.38;;
22764;SDS011;11549;50.852;3.816;2024-03-07T07:47:59;228.77;;;71.85;;
22764;SDS011;11549;50.852;3.816;2024-03-07T07:50:27;194.52;;;69.75;;
22764;SDS011;11549;50.852;3.816;2024-03-07T07:52:58;214.32;;;70.03;;
22764;SDS011;11549;50.852;3.816;2024-03-07T07:55:27;187.60;;;68.43;;
22764;SDS011;11549;50.852;3.816;2024-03-07T07:57:56;196.20;;;69.40;;
22764;SDS011;11549;50.852;3.816;2024-03-07T08:00:27;198.68;;;69.68;;
22764;SDS011;11549;50.852;3.816;2024-03-07T08:02:58;184.52;;;66.50;;
22764;SDS011;11549;50.852;3.816;2024-03-07T08:05:28;178.82;;;63.58;;
22764;SDS011;11549;50.852;3.816;2024-03-07T08:08:01;207.65;;;67.22;;
22764;SDS011;11549;50.852;3.816;2024-03-07T08:10:32;174.27;;;65.80;;
22764;SDS011;11549;50.852;3.816;2024-03-07T08:13:02;177.55;;;65.78;;
22764;SDS011;11549;50.852;3.816;2024-03-07T08:15:33;185.32;;;66.03;;
22764;SDS011;11549;50.852;3.816;2024-03-07T08:18:01;174.27;;;66.10;;
22764;SDS011;11549;50.852;3.816;2024-03-07T08:20:37;201.43;;;67.82;;
22764;SDS011;11549;50.852;3.816;2024-03-07T08:23:09;168.75;;;66.32;;
22764;SDS011;11549;50.852;3.816;2024-03-07T08:25:39;168.88;;;65.38;;
22764;SDS011;11549;50.852;3.816;2024-03-07T08:28:08;167.75;;;62.63;;
22764;SDS011;11549;50.852;3.816;2024-03-07T08:30:37;169.45;;;65.68;;
22764;SDS011;11549;50.852;3.816;2024-03-07T08:33:05;150.75;;;62.40;;
22764;SDS011;11549;50.852;3.816;2024-03-07T08:35:34;165.65;;;64.72;;
22764;SDS011;11549;50.852;3.816;2024-03-07T08:38:03;152.63;;;61.33;;
22764;SDS011;11549;50.852;3.816;2024-03-07T08:40:33;150.02;;;58.50;;
22764;SDS011;11549;50.852;3.816;2024-03-07T08:43:01;154.80;;;62.10;;
22764;SDS011;11549;50.852;3.816;2024-03-07T08:45:31;157.25;;;62.15;;
22764;SDS011;11549;50.852;3.816;2024-03-07T08:48:02;148.52;;;60.00;;
22764;SDS011;11549;50.852;3.816;2024-03-07T08:50:32;146.57;;;59.80;;
22764;SDS011;11549;50.852;3.816;2024-03-07T08:53:02;131.25;;;56.60;;
22764;SDS011;11549;50.852;3.816;2024-03-07T08:55:33;131.68;;;55.97;;
22764;SDS011;11549;50.852;3.816;2024-03-07T08:58:03;125.57;;;54.70;;
22764;SDS011;11549;50.852;3.816;2024-03-07T09:00:35;127.07;;;55.42;;
22764;SDS011;11549;50.852;3.816;2024-03-07T09:03:05;118.60;;;55.30;;
22764;SDS011;11549;50.852;3.816;2024-03-07T09:05:39;120.90;;;52.30;;
22764;SDS011;11549;50.852;3.816;2024-03-07T09:08:09;121.00;;;55.17;;
22764;SDS011;11549;50.852;3.816;2024-03-07T09:10:39;119.80;;;52.13;;
22764;SDS011;11549;50.852;3.816;2024-03-07T09:13:11;123.93;;;54.05;;
22764;SDS011;11549;50.852;3.816;2024-03-07T09:15:40;123.13;;;54.42;;
22764;SDS011;11549;50.852;3.816;2024-03-07T09:18:09;109.78;;;51.60;;
22764;SDS011;11549;50.852;3.816;2024-03-07T09:20:38;111.43;;;51.13;;
22764;SDS011;11549;50.852;3.816;2024-03-07T09:23:07;101.95;;;49.45;;
22764;SDS011;11549;50.852;3.816;2024-03-07T09:25:36;108.30;;;50.03;;
22764;SDS011;11549;50.852;3.816;2024-03-07T09:28:07;109.97;;;51.72;;
22764;SDS011;11549;50.852;3.816;2024-03-07T09:30:37;109.90;;;51.75;;
22764;SDS011;11549;50.852;3.816;2024-03-07T09:33:06;96.38;;;47.67;;
22764;SDS011;11549;50.852;3.816;2024-03-07T09:35:38;98.88;;;48.47;;
22764;SDS011;11549;50.852;3.816;2024-03-07T09:38:07;103.70;;;49.38;;
22764;SDS011;11549;50.852;3.816;2024-03-07T09:40:36;103.15;;;49.10;;
22764;SDS011;11549;50.852;3.816;2024-03-07T09:43:04;99.35;;;47.95;;
22764;SDS011;11549;50.852;3.816;2024-03-07T09:45:37;99.63;;;47.00;;
22764;SDS011;11549;50.852;3.816;2024-03-07T09:48:14;97.90;;;47.90;;
22764;SDS011;11549;50.852;3.816;2024-03-07T09:50:44;101.63;;;47.63;;
22764;SDS011;11549;50.852;3.816;2024-03-07T09:53:16;96.60;;;47.08;;
22764;SDS011;11549;50.852;3.816;2024-03-07T09:55:46;100.65;;;48.55;;
22764;SDS011;11549;50.852;3.816;2024-03-07T09:58:17;98.95;;;47.95;;
22764;SDS011;11549;50.852;3.816;2024-03-07T10:00:47;95.80;;;47.22;;
22764;SDS011;11549;50.852;3.816;2024-03-07T10:03:18;102.35;;;47.03;;
22764;SDS011;11549;50.852;3.816;2024-03-07T10:05:50;91.18;;;46.60;;
22764;SDS011;11549;50.852;3.816;2024-03-07T10:08:20;87.20;;;43.97;;
22764;SDS011;11549;50.852;3.816;2024-03-07T10:10:50;93.80;;;45.53;;
22764;SDS011;11549;50.852;3.816;2024-03-07T10:13:23;93.15;;;46.55;;
22764;SDS011;11549;50.852;3.816;2024-03-07T10:15:52;91.20;;;46.03;;
22764;SDS011;11549;50.852;3.816;2024-03-07T10:18:22;89.05;;;45.42;;
22764;SDS011;11549;50.852;3.816;2024-03-07T10:20:53;86.25;;;44.67;;
22764;SDS011;11549;50.852;3.816;2024-03-07T10:23:22;82.53;;;43.22;;
22764;SDS011;11549;50.852;3.816;2024-03-07T10:25:51;85.00;;;44.65;;
22764;SDS011;11549;50.852;3.816;2024-03-07T10:28:21;78.90;;;42.35;;
22764;SDS011;11549;50.852;3.816;2024-03-07T10:30:51;82.65;;;44.55;;
22764;SDS011;11549;50.852;3.816;2024-03-07T10:33:19;76.28;;;41.92;;
22764;SDS011;11549;50.852;3.816;2024-03-07T10:35:50;74.80;;;41.20;;
22764;SDS011;11549;50.852;3.816;2024-03-07T10:38:18;76.07;;;40.97;;
22764;SDS011;11549;50.852;3.816;2024-03-07T10:40:48;76.57;;;42.78;;
22764;SDS011;11549;50.852;3.816;2024-03-07T10:43:22;74.13;;;40.70;;
22764;SDS011;11549;50.852;3.816;2024-03-07T10:45:54;72.07;;;41.35;;
22764;SDS011;11549;50.852;3.816;2024-03-07T10:48:29;72.93;;;41.38;;
22764;SDS011;11549;50.852;3.816;2024-03-07T10:51:03;76.13;;;42.75;;
22764;SDS011;11549;50.852;3.816;2024-03-07T10:53:45;70.30;;;40.88;;
22764;SDS011;11549;50.852;3.816;2024-03-07T10:56:31;73.45;;;41.83;;
22764;SDS011;11549;50.852;3.816;2024-03-07T10:59:13;75.13;;;42.17;;
22764;SDS011;11549;50.852;3.816;2024-03-07T11:01:49;78.15;;;43.47;;
22764;SDS011;11549;50.852;3.816;2024-03-07T11:04:23;73.15;;;41.88;;
22764;SDS011;11549;50.852;3.816;2024-03-07T11:06:53;71.82;;;40.53;;
22764;SDS011;11549;50.852;3.816;2024-03-07T11:09:22;72.32;;;41.00;;
22764;SDS011;11549;50.852;3.816;2024-03-07T11:11:55;74.75;;;41.45;;
22764;SDS011;11549;50.852;3.816;2024-03-07T11:14:26;70.22;;;40.60;;
22764;SDS011;11549;50.852;3.816;2024-03-07T11:16:57;64.78;;;39.67;;
22764;SDS011;11549;50.852;3.816;2024-03-07T11:19:28;68.10;;;39.50;;
22764;SDS011;11549;50.852;3.816;2024-03-07T11:22:03;65.82;;;40.05;;
22764;SDS011;11549;50.852;3.816;2024-03-07T11:24:43;65.00;;;39.47;;
22764;SDS011;11549;50.852;3.816;2024-03-07T11:27:12;65.22;;;40.28;;
22764;SDS011;11549;50.852;3.816;2024-03-07T11:29:42;68.07;;;41.03;;
22764;SDS011;11549;50.852;3.816;2024-03-07T11:32:12;68.18;;;40.65;;
22764;SDS011;11549;50.852;3.816;2024-03-07T11:34:43;59.58;;;38.22;;
22764;SDS011;11549;50.852;3.816;2024-03-07T11:37:17;64.97;;;39.78;;
22764;SDS011;11549;50.852;3.816;2024-03-07T11:39:50;60.28;;;37.33;;
22764;SDS011;11549;50.852;3.816;2024-03-07T11:42:24;59.78;;;37.58;;
22764;SDS011;11549;50.852;3.816;2024-03-07T11:44:53;58.38;;;37.90;;
22764;SDS011;11549;50.852;3.816;2024-03-07T11:47:26;57.20;;;36.03;;
22764;SDS011;11549;50.852;3.816;2024-03-07T11:50:05;57.65;;;36.80;;
22764;SDS011;11549;50.852;3.816;2024-03-07T11:52:39;58.78;;;36.22;;
22764;SDS011;11549;50.852;3.816;2024-03-07T11:55:11;57.08;;;37.25;;
22764;SDS011;11549;50.852;3.816;2024-03-07T11:57:40;54.45;;;35.67;;
22764;SDS011;11549;50.852;3.816;2024-03-07T12:00:11;56.90;;;35.53;;
22764;SDS011;11549;50.852;3.816;2024-03-07T12:02:43;56.60;;;36.35;;
22764;SDS011;11549;50.852;3.816;2024-03-07T12:05:12;54.55;;;35.08;;
22764;SDS011;11549;50.852;3.816;2024-03-07T12:07:43;57.00;;;36.40;;
22764;SDS011;11549;50.852;3.816;2024-03-07T12:10:12;59.83;;;36.97;;
22764;SDS011;11549;50.852;3.816;2024-03-07T12:12:41;56.88;;;35.65;;
22764;SDS011;11549;50.852;3.816;2024-03-07T12:15:10;56.65;;;36.85;;
22764;SDS011;11549;50.852;3.816;2024-03-07T12:17:48;58.65;;;36.35;;
22764;SDS011;11549;50.852;3.816;2024-03-07T12:20:18;54.90;;;35.72;;
22764;SDS011;11549;50.852;3.816;2024-03-07T12:22:56;55.45;;;35.90;;
22764;SDS011;11549;50.852;3.816;2024-03-07T12:25:28;53.33;;;34.45;;
22764;SDS011;11549;50.852;3.816;2024-03-07T12:28:03;59.47;;;36.30;;
22764;SDS011;11549;50.852;3.816;2024-03-07T12:30:47;55.60;;;35.35;;
22764;SDS011;11549;50.852;3.816;2024-03-07T12:33:19;55.38;;;34.15;;
22764;SDS011;11549;50.852;3.816;2024-03-07T12:35:50;54.45;;;35.90;;
22764;SDS011;11549;50.852;3.816;2024-03-07T12:38:19;56.03;;;35.22;;
22764;SDS011;11549;50.852;3.816;2024-03-07T12:41:01;56.88;;;34.83;;
22764;SDS011;11549;50.852;3.816;2024-03-07T12:43:33;53.92;;;35.20;;
22764;SDS011;11549;50.852;3.816;2024-03-07T12:46:04;54.40;;;35.70;;
22764;SDS011;11549;50.852;3.816;2024-03-07T12:48:37;54.60;;;34.58;;
22764;SDS011;11549;50.852;3.816;2024-03-07T12:51:06;55.05;;;35.83;;
22764;SDS011;11549;50.852;3.816;2024-03-07T12:53:36;52.33;;;34.25;;
22764;SDS011;11549;50.852;3.816;2024-03-07T12:56:05;51.38;;;33.28;;
22764;SDS011;11549;50.852;3.816;2024-03-07T12:58:35;55.03;;;35.00;;
22764;SDS011;11549;50.852;3.816;2024-03-07T13:01:04;54.03;;;36.25;;
22764;SDS011;11549;50.852;3.816;2024-03-07T13:03:33;51.42;;;33.58;;
22764;SDS011;11549;50.852;3.816;2024-03-07T13:06:03;52.13;;;34.08;;
22764;SDS011;11549;50.852;3.816;2024-03-07T13:08:33;49.42;;;31.75;;
22764;SDS011;11549;50.852;3.816;2024-03-07T13:11:02;51.65;;;32.85;;
22764;SDS011;11549;50.852;3.816;2024-03-07T13:13:32;50.13;;;32.90;;
22764;SDS011;11549;50.852;3.816;2024-03-07T13:16:00;49.80;;;32.33;;
22764;SDS011;11549;50.852;3.816;2024-03-07T13:18:30;51.75;;;32.60;;
22764;SDS011;11549;50.852;3.816;2024-03-07T13:21:03;48.65;;;31.30;;
22764;SDS011;11549;50.852;3.816;2024-03-07T13:23:33;47.40;;;30.98;;
22764;SDS011;11549;50.852;3.816;2024-03-07T13:26:06;46.45;;;29.40;;
22764;SDS011;11549;50.852;3.816;2024-03-07T13:28:43;45.40;;;31.75;;
22764;SDS011;11549;50.852;3.816;2024-03-07T13:31:14;48.53;;;31.83;;
22764;SDS011;11549;50.852;3.816;2024-03-07T13:33:44;49.53;;;32.58;;
22764;SDS011;11549;50.852;3.816;2024-03-07T13:36:17;49.33;;;33.17;;
22764;SDS011;11549;50.852;3.816;2024-03-07T13:38:50;49.03;;;32.58;;
22764;SDS011;11549;50.852;3.816;2024-03-07T13:41:22;49.35;;;32.33;;
22764;SDS011;11549;50.852;3.816;2024-03-07T13:43:52;46.63;;;31.88;;
22764;SDS011;11549;50.852;3.816;2024-03-07T13:46:21;49.08;;;33.00;;
22764;SDS011;11549;50.852;3.816;2024-03-07T13:48:49;46.70;;;32.88;;
22764;SDS011;11549;50.852;3.816;2024-03-07T13:51:20;48.38;;;32.38;;
22764;SDS011;11549;50.852;3.816;2024-03-07T13:53:49;46.33;;;32.50;;
22764;SDS011;11549;50.852;3.816;2024-03-07T13:56:47;47.00;;;32.78;;
22764;SDS011;11549;50.852;3.816;2024-03-07T14:02:41;49.15;;;32.65;;
22764;SDS011;11549;50.852;3.816;2024-03-07T14:05:34;47.10;;;32.67;;
22764;SDS011;11549;50.852;3.816;2024-03-07T14:08:32;47.50;;;33.78;;
22764;SDS011;11549;50.852;3.816;2024-03-07T14:15:01;44.50;;;32.85;;
22764;SDS011;11549;50.852;3.816;2024-03-07T14:17:59;48.88;;;35.50;;
22764;SDS011;11549;50.852;3.816;2024-03-07T14:21:14;50.08;;;35.88;;
22764;SDS011;11549;50.852;3.816;2024-03-07T14:24:13;46.30;;;35.53;;
22764;SDS011;11549;50.852;3.816;2024-03-07T14:27:15;49.70;;;35.80;;
22764;SDS011;11549;50.852;3.816;2024-03-07T14:29:54;48.78;;;34.78;;
22764;SDS011;11549;50.852;3.816;2024-03-07T14:32:38;49.25;;;35.35;;
22764;SDS011;11549;50.852;3.816;2024-03-07T14:35:12;50.47;;;35.53;;
22764;SDS011;11549;50.852;3.816;2024-03-07T14:37:51;47.90;;;34.45;;
22764;SDS011;11549;50.852;3.816;2024-03-07T14:40:23;47.88;;;34.97;;
22764;SDS011;11549;50.852;3.816;2024-03-07T14:42:54;50.17;;;35.83;;
22764;SDS011;11549;50.852;3.816;2024-03-07T14:45:27;47.17;;;34.45;;